Moranburg, Kentucky
Current Conditions -  °F | °C
As of 11:35 AM on Thursday 29 Jan 2015 (Local Time) from KFGX Reporting Station
Overcast Overcast  
Wind Chill: 41°   Ceiling: 4300
Heat Index: 48°   Visibility: 10mi
Dew Point: 36°   Wind: 18mph
Humidity: 65%   Direction: 220°SW
Pressure: 29.9"   Gusts: 25mph
Location:  38.585°N, 83.7789°W
Report Text: KFGX 291635Z AUTO 22016G22KT 10SM OVC043 09/02 A2990 RMK AO2 T00870024
Loading
Personal Weather Stations






























Interactive Weather Map New forecast layout! Learn more

10-Day Weather Forecast

Advertisements
Track Severe Weather on mobile